Alkol, West Virginia
Current Conditions -  °F | °C
As of 3:54 PM on Sunday 23 Nov 2014 (Local Time) from KCRW Reporting Station
Light Rain Light Rain  
Wind Chill: 60°   Ceiling: 9500
Heat Index: 60°   Visibility: 10mi
Dew Point: 44°   Wind: 12mph
Humidity: 55%   Direction: 140°SE
Pressure: 29.8"   Gusts: 25mph
Location:  38.16°N, 81.92°W
Report Text: KCRW 232054Z 14010G22KT 10SM -RA SCT050 BKN095 BKN130 16/07 A2980 RMK AO2 RAB40 SLP092 BKN130 V OVC PCPN VRY LGT P0000 60000 T01560067 56039
Loading
Personal Weather Stations






























Interactive Weather Map New forecast layout! Learn more

10-Day Weather Forecast

Advertisements
Track Severe Weather on mobile